createdAt,value
2023-02-19T00:00:30.464Z,2.20
2023-02-19T00:01:34.082Z,2.08
2023-02-19T00:02:36.420Z,2.00
2023-02-19T00:03:39.920Z,1.85
2023-02-19T00:04:42.480Z,1.63
2023-02-19T00:05:44.838Z,1.88
2023-02-19T00:06:48.231Z,2.33
2023-02-19T00:07:50.581Z,2.13
2023-02-19T00:08:53.393Z,2.22
2023-02-19T00:09:55.744Z,2.17
2023-02-19T00:11:06.716Z,2.13
2023-02-19T00:12:09.146Z,2.17
2023-02-19T00:13:11.459Z,1.90
2023-02-19T00:14:17.413Z,1.88
2023-02-19T00:15:19.832Z,2.00
2023-02-19T00:16:26.435Z,2.08
2023-02-19T00:17:28.755Z,2.30
2023-02-19T00:18:31.035Z,1.80
2023-02-19T00:19:33.298Z,2.00
2023-02-19T00:20:35.633Z,2.13
2023-02-19T00:21:38.131Z,2.13
2023-02-19T00:22:40.454Z,1.75
2023-02-19T00:23:42.894Z,2.03
2023-02-19T00:24:45.226Z,1.90
2023-02-19T00:25:47.539Z,2.13
2023-02-19T00:26:50.180Z,1.80
2023-02-19T00:27:52.725Z,2.00
2023-02-19T00:28:56.221Z,2.10
2023-02-19T00:29:58.945Z,1.90
2023-02-19T00:31:18.809Z,2.17
2023-02-19T00:32:21.213Z,2.10
2023-02-19T00:33:23.661Z,2.05
2023-02-19T00:34:25.910Z,1.80
2023-02-19T00:35:28.210Z,2.08
2023-02-19T00:36:31.668Z,2.05
2023-02-19T00:37:34.071Z,1.55
2023-02-19T00:38:37.697Z,1.60
2023-02-19T00:39:40.037Z,1.52
2023-02-19T00:40:42.376Z,1.75
2023-02-19T00:41:45.518Z,1.75
2023-02-19T00:42:47.789Z,35.45
2023-02-19T00:44:04.789Z,48.33
2023-02-19T00:45:07.578Z,24.60
2023-02-19T00:46:09.910Z,16.65
2023-02-19T00:47:12.264Z,11.38
2023-02-19T00:48:15.003Z,9.40
2023-02-19T00:49:22.592Z,7.32
2023-02-19T00:50:24.890Z,5.50
2023-02-19T00:51:30.007Z,4.97
2023-02-19T00:52:32.357Z,4.93
2023-02-19T00:53:34.786Z,4.22
2023-02-19T00:54:37.441Z,3.80
2023-02-19T00:55:39.789Z,3.03
2023-02-19T00:56:42.249Z,3.47
2023-02-19T00:57:44.542Z,3.20
2023-02-19T00:58:47.666Z,3.15
2023-02-19T00:59:49.978Z,2.88
2023-02-19T01:00:52.575Z,3.10
2023-02-19T01:01:55.185Z,3.15
2023-02-19T01:02:57.723Z,2.80
2023-02-19T01:04:01.615Z,3.00
2023-02-19T01:05:04.170Z,2.80
2023-02-19T01:06:08.607Z,2.17
2023-02-19T01:07:11.005Z,2.63
2023-02-19T01:08:13.275Z,2.40
2023-02-19T01:09:16.099Z,2.03
2023-02-19T01:10:18.467Z,3.33
2023-02-19T01:11:20.778Z,5.65
2023-02-19T01:12:25.632Z,4.20
2023-02-19T01:13:28.670Z,4.70
2023-02-19T01:14:31.918Z,4.75
2023-02-19T01:15:34.551Z,3.95
2023-02-19T01:16:37.135Z,4.97
2023-02-19T01:17:39.502Z,4.45
2023-02-19T01:18:41.977Z,4.47
2023-02-19T01:19:44.360Z,4.18
2023-02-19T01:20:47.500Z,4.03
2023-02-19T01:21:49.777Z,3.67
2023-02-19T01:22:52.333Z,3.58
2023-02-19T01:23:55.657Z,3.50
2023-02-19T01:25:00.258Z,3.78
2023-02-19T01:26:08.503Z,3.28
2023-02-19T01:27:10.981Z,3.20
2023-02-19T01:28:13.470Z,3.05
2023-02-19T01:29:15.824Z,3.47
2023-02-19T01:30:18.380Z,2.70
2023-02-19T01:31:23.900Z,2.97
2023-02-19T01:32:26.301Z,2.72
2023-02-19T01:33:29.263Z,3.25
2023-02-19T01:34:33.301Z,2.67
2023-02-19T01:35:39.125Z,2.90
2023-02-19T01:36:41.563Z,2.55
2023-02-19T01:37:43.920Z,2.90
2023-02-19T01:38:46.542Z,2.80
2023-02-19T01:39:48.919Z,2.50
2023-02-19T01:41:02.097Z,2.40
2023-02-19T01:42:06.252Z,2.50
2023-02-19T01:43:16.025Z,2.38
2023-02-19T01:44:18.475Z,2.95
2023-02-19T01:45:29.496Z,2.58
2023-02-19T01:46:37.170Z,2.42
2023-02-19T01:47:39.703Z,3.25
2023-02-19T01:48:42.051Z,2.47
2023-02-19T01:49:57.085Z,3.05
2023-02-19T01:51:12.794Z,2.25
2023-02-19T01:52:41.411Z,2.30
2023-02-19T01:53:47.110Z,2.42
2023-02-19T01:54:50.394Z,2.42
2023-02-19T01:55:57.996Z,2.17
2023-02-19T01:57:06.826Z,2.50
2023-02-19T01:58:09.977Z,2.58
2023-02-19T01:59:14.554Z,2.45
2023-02-19T02:00:18.257Z,2.28
2023-02-19T02:01:20.741Z,8.50
2023-02-19T02:02:27.295Z,21.60
2023-02-19T02:03:31.235Z,23.80
2023-02-19T02:04:34.488Z,16.45
2023-02-19T02:06:25.672Z,11.38
2023-02-19T02:07:46.507Z,6.40
2023-02-19T02:09:12.081Z,5.22
2023-02-19T02:10:20.758Z,4.28
2023-02-19T02:11:23.228Z,3.42
2023-02-19T02:12:25.523Z,3.70
2023-02-19T02:13:28.303Z,3.05
2023-02-19T02:14:36.304Z,2.67
2023-02-19T02:16:17.582Z,2.47
2023-02-19T02:17:30.298Z,2.67
2023-02-19T02:18:49.271Z,2.47
2023-02-19T02:20:22.507Z,2.15
2023-02-19T02:21:44.517Z,1.95
2023-02-19T02:22:55.818Z,2.50
2023-02-19T02:24:21.342Z,1.90
2023-02-19T02:25:35.330Z,2.03
2023-02-19T02:27:12.016Z,1.80
2023-02-19T02:28:32.763Z,1.83
2023-02-19T02:30:07.470Z,1.50
2023-02-19T02:31:16.973Z,1.70
2023-02-19T02:32:54.340Z,1.67
2023-02-19T02:34:07.451Z,1.50
2023-02-19T02:35:13.443Z,1.50
2023-02-19T02:36:41.519Z,1.50
2023-02-19T02:37:48.418Z,1.33
2023-02-19T02:38:54.076Z,1.25
2023-02-19T02:39:58.760Z,1.40
2023-02-19T02:41:02.474Z,1.40
2023-02-19T02:42:24.699Z,1.02
2023-02-19T02:43:35.038Z,2.83
2023-02-19T02:44:40.804Z,4.55
2023-02-19T02:45:43.296Z,13.45
2023-02-19T02:46:56.320Z,33.60
2023-02-19T02:47:58.744Z,42.33
2023-02-19T02:49:08.916Z,23.08
2023-02-19T02:50:30.165Z,25.70
2023-02-19T02:51:45.754Z,20.60
2023-02-19T02:53:20.211Z,15.82
2023-02-19T02:54:46.566Z,15.07
2023-02-19T02:55:53.200Z,13.40
2023-02-19T02:56:56.511Z,12.68
2023-02-19T02:57:59.512Z,13.32
2023-02-19T02:59:04.842Z,12.15
2023-02-19T03:00:08.411Z,12.20
2023-02-19T03:01:34.881Z,11.85
2023-02-19T03:02:37.705Z,11.80
2023-02-19T03:03:43.402Z,11.13
2023-02-19T03:05:28.312Z,11.88
2023-02-19T03:06:34.297Z,10.45
2023-02-19T03:07:43.298Z,10.13
2023-02-19T03:09:12.264Z,10.27
2023-02-19T03:10:19.913Z,10.05
2023-02-19T03:11:40.904Z,8.98
2023-02-19T03:13:04.118Z,9.95
2023-02-19T03:14:39.835Z,9.75
2023-02-19T03:16:06.464Z,10.00
2023-02-19T03:17:46.052Z,10.15
2023-02-19T03:19:13.733Z,9.27
2023-02-19T03:20:21.115Z,9.20
2023-02-19T03:21:24.969Z,9.43
2023-02-19T03:22:31.654Z,9.43
2023-02-19T03:23:56.103Z,8.95
2023-02-19T03:25:34.358Z,8.35
2023-02-19T03:26:38.902Z,8.93
2023-02-19T03:27:43.647Z,9.20
2023-02-19T03:29:07.432Z,8.50
2023-02-19T03:30:22.381Z,8.77
2023-02-19T03:31:27.426Z,7.78
2023-02-19T03:32:36.675Z,9.15
2023-02-19T03:33:41.490Z,9.70
2023-02-19T03:34:51.242Z,9.23
2023-02-19T03:35:58.330Z,24.52
2023-02-19T03:37:43.368Z,48.22
2023-02-19T03:39:00.667Z,45.35
2023-02-19T03:40:03.612Z,29.35
2023-02-19T03:41:10.686Z,22.65
2023-02-19T03:42:26.021Z,15.85
2023-02-19T03:43:48.243Z,12.38
2023-02-19T03:45:22.825Z,11.63
2023-02-19T03:46:32.533Z,8.98
2023-02-19T03:48:02.901Z,8.57
2023-02-19T03:49:31.011Z,8.50
2023-02-19T03:50:50.372Z,8.57
2023-02-19T03:52:16.864Z,7.25
2023-02-19T03:53:48.488Z,7.40
2023-02-19T03:55:16.596Z,6.57
2023-02-19T03:56:33.206Z,6.00
2023-02-19T03:57:41.071Z,6.22
2023-02-19T03:58:54.736Z,5.45
2023-02-19T04:00:32.893Z,5.97
2023-02-19T04:01:53.706Z,5.10
2023-02-19T04:03:28.801Z,4.75
2023-02-19T04:04:43.642Z,4.18
2023-02-19T04:05:50.347Z,4.53
2023-02-19T04:06:58.050Z,4.35
2023-02-19T04:08:09.947Z,4.07
2023-02-19T04:09:19.164Z,3.60
2023-02-19T04:10:26.133Z,3.92
2023-02-19T04:11:31.355Z,3.80
2023-02-19T04:12:41.608Z,3.60
2023-02-19T04:13:49.648Z,4.13
2023-02-19T04:15:03.225Z,3.33
2023-02-19T04:16:12.177Z,2.92
2023-02-19T04:17:26.480Z,2.70
2023-02-19T04:18:32.743Z,2.40
2023-02-19T04:19:39.730Z,2.80
2023-02-19T04:20:44.842Z,2.55
2023-02-19T04:21:49.949Z,2.72
2023-02-19T04:22:52.770Z,2.22
2023-02-19T04:23:56.869Z,2.42
2023-02-19T04:24:59.220Z,2.13
2023-02-19T04:26:03.445Z,2.38
2023-02-19T04:27:08.764Z,2.20
2023-02-19T04:28:14.840Z,2.35
2023-02-19T04:29:17.192Z,2.42
2023-02-19T04:30:19.718Z,2.50
2023-02-19T04:31:23.016Z,2.30
2023-02-19T04:32:25.317Z,2.33
2023-02-19T04:33:27.587Z,2.40
2023-02-19T04:34:29.886Z,2.40
2023-02-19T04:35:32.220Z,2.40
2023-02-19T04:36:34.857Z,2.30
2023-02-19T04:37:37.256Z,2.22
2023-02-19T04:38:39.642Z,2.08
2023-02-19T04:39:41.932Z,2.22
2023-02-19T04:40:44.333Z,1.70
2023-02-19T04:41:46.606Z,1.60
2023-02-19T04:42:49.000Z,2.10
2023-02-19T04:43:51.315Z,2.00
2023-02-19T04:44:53.648Z,1.70
2023-02-19T04:46:00.012Z,1.60
2023-02-19T04:47:02.375Z,1.50
2023-02-19T04:48:05.408Z,1.58
2023-02-19T04:49:07.745Z,1.80
2023-02-19T04:50:10.359Z,1.92
2023-02-19T04:51:13.072Z,1.60
2023-02-19T04:52:15.470Z,1.80
2023-02-19T04:53:17.795Z,1.48
2023-02-19T04:54:20.134Z,1.60
2023-02-19T04:55:22.471Z,1.65
2023-02-19T04:56:24.805Z,1.90
2023-02-19T04:57:27.141Z,1.42
2023-02-19T04:58:30.906Z,1.77
2023-02-19T04:59:33.569Z,1.42
2023-02-19T05:00:35.922Z,1.42
2023-02-19T05:01:38.287Z,1.48
2023-02-19T05:02:40.690Z,1.35
2023-02-19T05:03:43.624Z,1.60
2023-02-19T05:04:46.224Z,1.70
2023-02-19T05:05:48.558Z,1.30
2023-02-19T05:06:50.872Z,1.38
2023-02-19T05:07:53.192Z,1.20
2023-02-19T05:08:55.530Z,1.48
2023-02-19T05:09:59.735Z,1.35
2023-02-19T05:11:04.253Z,1.20
2023-02-19T05:12:06.898Z,1.40
2023-02-19T05:13:09.428Z,1.02
2023-02-19T05:14:11.800Z,1.30
2023-02-19T05:15:14.140Z,1.70
2023-02-19T05:16:17.095Z,1.55
2023-02-19T05:17:19.412Z,1.70
2023-02-19T05:18:21.728Z,1.75
2023-02-19T05:19:23.983Z,1.60
2023-02-19T05:20:26.579Z,1.77
2023-02-19T05:21:28.958Z,1.10
2023-02-19T05:22:31.260Z,1.30
2023-02-19T05:23:33.944Z,1.10
2023-02-19T05:24:36.434Z,1.15
2023-02-19T05:25:38.726Z,0.95
2023-02-19T05:26:40.970Z,0.98
2023-02-19T05:27:43.661Z,1.00
2023-02-19T05:28:47.582Z,0.90
2023-02-19T05:29:50.165Z,1.00
2023-02-19T05:30:53.101Z,1.10
2023-02-19T05:31:55.548Z,1.00
2023-02-19T05:32:58.091Z,0.95
2023-02-19T05:34:00.640Z,1.00
2023-02-19T05:35:03.138Z,0.93
2023-02-19T05:36:08.341Z,1.00
2023-02-19T05:37:10.652Z,1.00
2023-02-19T05:38:13.063Z,0.85
2023-02-19T05:39:15.405Z,0.77
2023-02-19T05:40:17.772Z,0.90
2023-02-19T05:41:22.989Z,1.00
2023-02-19T05:42:25.430Z,1.00
2023-02-19T05:43:27.841Z,0.70
2023-02-19T05:44:30.251Z,1.00
2023-02-19T05:45:33.094Z,1.20
2023-02-19T05:46:35.472Z,0.93
2023-02-19T05:47:37.805Z,1.08
2023-02-19T05:48:40.693Z,0.95
2023-02-19T05:49:43.042Z,0.82
2023-02-19T05:50:45.384Z,0.75
2023-02-19T05:51:50.812Z,0.80
2023-02-19T05:52:53.230Z,0.90
2023-02-19T05:53:56.511Z,0.77
2023-02-19T05:54:58.788Z,0.77
2023-02-19T05:56:01.453Z,0.95
2023-02-19T05:57:04.196Z,0.90
2023-02-19T05:58:06.662Z,0.95
2023-02-19T05:59:19.847Z,1.02
2023-02-19T06:00:23.073Z,0.90
2023-02-19T06:01:27.861Z,0.70
2023-02-19T06:02:30.592Z,0.85
2023-02-19T06:03:32.955Z,0.80
2023-02-19T06:04:35.951Z,0.90
2023-02-19T06:05:38.469Z,0.98
2023-02-19T06:06:41.556Z,0.70
2023-02-19T06:07:43.928Z,0.85
2023-02-19T06:08:48.309Z,0.85
2023-02-19T06:09:51.321Z,0.88
2023-02-19T06:10:53.565Z,1.23
2023-02-19T06:11:55.904Z,0.90
2023-02-19T06:12:58.233Z,1.00
2023-02-19T06:14:00.925Z,0.80
2023-02-19T06:15:04.615Z,0.70
2023-02-19T06:16:08.493Z,0.93
2023-02-19T06:17:10.999Z,0.70
2023-02-19T06:18:13.298Z,0.80
2023-02-19T06:19:15.583Z,0.75
2023-02-19T06:20:18.047Z,1.25
2023-02-19T06:21:20.880Z,15.68
2023-02-19T06:22:23.280Z,39.20
2023-02-19T06:23:31.190Z,83.60
2023-02-19T06:24:34.293Z,51.65
2023-02-19T06:25:36.606Z,58.90
2023-02-19T06:26:38.902Z,48.50
2023-02-19T06:27:41.228Z,45.10
2023-02-19T06:28:44.643Z,37.85
2023-02-19T06:29:47.145Z,34.92
2023-02-19T06:30:51.489Z,28.70
2023-02-19T06:31:54.008Z,24.92
2023-02-19T06:32:56.440Z,22.42
2023-02-19T06:33:58.759Z,20.17
2023-02-19T06:35:01.092Z,16.55
2023-02-19T06:36:04.709Z,14.48
2023-02-19T06:37:07.041Z,13.57
2023-02-19T06:38:09.285Z,11.77
2023-02-19T06:39:11.539Z,11.20
2023-02-19T06:40:13.917Z,9.30
2023-02-19T06:41:16.459Z,9.07
2023-02-19T06:42:19.259Z,8.57
2023-02-19T06:43:21.651Z,8.52
2023-02-19T06:44:24.609Z,8.32
2023-02-19T06:45:27.151Z,7.80
2023-02-19T06:46:29.512Z,7.35
2023-02-19T06:47:32.907Z,6.95
2023-02-19T06:48:35.770Z,7.30
2023-02-19T06:49:40.205Z,7.72
2023-02-19T06:50:42.632Z,7.05
2023-02-19T06:51:44.975Z,6.55
2023-02-19T06:52:47.239Z,7.35
2023-02-19T06:53:49.766Z,6.97
2023-02-19T06:54:52.077Z,7.50
2023-02-19T06:56:03.252Z,6.70
2023-02-19T06:57:05.598Z,7.03
2023-02-19T06:58:07.886Z,7.40
2023-02-19T06:59:13.031Z,7.30
2023-02-19T07:00:15.708Z,7.18
2023-02-19T07:01:18.278Z,7.28
2023-02-19T07:02:20.627Z,6.00
2023-02-19T07:03:23.592Z,6.78
2023-02-19T07:04:25.993Z,6.93
2023-02-19T07:05:28.458Z,6.75
2023-02-19T07:06:31.884Z,7.00
2023-02-19T07:07:34.314Z,7.03
2023-02-19T07:08:36.695Z,5.55
2023-02-19T07:09:38.966Z,11.35
2023-02-19T07:10:41.271Z,16.30
2023-02-19T07:11:43.664Z,17.30
2023-02-19T07:12:45.996Z,17.17
2023-02-19T07:13:48.322Z,15.95
2023-02-19T07:14:50.624Z,16.30
2023-02-19T07:15:59.164Z,14.35
2023-02-19T07:17:01.556Z,13.95
2023-02-19T07:18:05.141Z,12.10
2023-02-19T07:19:07.449Z,10.45
2023-02-19T07:20:10.024Z,9.52
2023-02-19T07:21:14.904Z,13.05
2023-02-19T07:22:17.207Z,26.85
2023-02-19T07:23:19.613Z,17.70
2023-02-19T07:24:22.692Z,16.95
2023-02-19T07:25:25.026Z,15.07
2023-02-19T07:26:27.362Z,14.55
2023-02-19T07:27:29.823Z,13.10
2023-02-19T07:28:32.189Z,13.43
2023-02-19T07:29:34.517Z,12.48
2023-02-19T07:30:36.942Z,11.77
2023-02-19T07:31:39.503Z,11.07
2023-02-19T07:32:42.624Z,12.57
2023-02-19T07:33:46.298Z,12.05
2023-02-19T07:34:48.664Z,11.73
2023-02-19T07:35:51.316Z,14.93
2023-02-19T07:36:53.615Z,12.30
2023-02-19T07:37:55.954Z,18.60
2023-02-19T07:38:59.637Z,18.58
2023-02-19T07:40:02.220Z,21.35
2023-02-19T07:41:05.891Z,21.20
2023-02-19T07:42:08.213Z,19.45
2023-02-19T07:43:10.608Z,17.58
2023-02-19T07:44:16.362Z,16.63
2023-02-19T07:45:18.744Z,14.77
2023-02-19T07:46:22.437Z,16.02
2023-02-19T07:47:24.835Z,15.65
2023-02-19T07:48:27.204Z,15.25
2023-02-19T07:49:29.582Z,15.85
2023-02-19T07:50:31.983Z,15.27
2023-02-19T07:51:34.590Z,15.63
2023-02-19T07:52:36.886Z,15.13
2023-02-19T07:53:39.405Z,15.20
2023-02-19T07:54:41.682Z,15.93
2023-02-19T07:55:44.004Z,15.38
2023-02-19T07:56:46.300Z,14.63
2023-02-19T07:57:48.637Z,14.52
2023-02-19T07:58:50.948Z,14.55
2023-02-19T07:59:53.289Z,14.88
2023-02-19T08:00:55.887Z,14.27
2023-02-19T08:02:17.026Z,30.98
2023-02-19T08:03:19.511Z,31.45
2023-02-19T08:04:21.851Z,30.15
2023-02-19T08:05:24.158Z,29.30
2023-02-19T08:06:26.549Z,27.33
2023-02-19T08:07:32.540Z,26.65
2023-02-19T08:08:34.850Z,25.05
2023-02-19T08:09:38.016Z,21.80
2023-02-19T08:10:59.586Z,19.83
2023-02-19T08:14:27.958Z,17.42
2023-02-19T08:15:30.332Z,18.50
2023-02-19T08:16:42.518Z,18.67
2023-02-19T08:17:45.418Z,18.52
2023-02-19T08:18:48.894Z,19.90
2023-02-19T08:19:51.193Z,18.60
2023-02-19T08:20:55.258Z,18.77
2023-02-19T08:21:57.814Z,18.85
2023-02-19T08:23:00.158Z,18.17
2023-02-19T08:24:02.557Z,18.02
2023-02-19T08:25:05.263Z,18.63
2023-02-19T08:26:08.572Z,18.40
2023-02-19T08:27:10.862Z,18.55
2023-02-19T08:28:13.430Z,17.67
2023-02-19T08:29:15.818Z,17.33
2023-02-19T08:30:18.240Z,17.85
2023-02-19T08:31:21.065Z,17.17
2023-02-19T08:32:23.421Z,16.73
2023-02-19T08:33:25.724Z,16.73
2023-02-19T08:34:28.016Z,37.28
2023-02-19T08:35:30.472Z,42.33
2023-02-19T08:36:32.838Z,39.45
2023-02-19T08:37:35.147Z,39.05
2023-02-19T08:38:37.791Z,40.33
2023-02-19T08:39:40.063Z,38.92
2023-02-19T08:40:43.333Z,32.55
2023-02-19T08:41:45.700Z,30.55
2023-02-19T08:42:47.994Z,27.00
2023-02-19T08:43:50.469Z,25.95
2023-02-19T08:44:52.816Z,26.48
2023-02-19T08:45:55.535Z,27.33
2023-02-19T08:46:57.853Z,28.08
2023-02-19T08:48:00.291Z,28.58
2023-02-19T08:49:02.612Z,26.25
2023-02-19T08:50:06.816Z,26.45
2023-02-19T08:51:11.642Z,27.42
2023-02-19T08:52:14.340Z,28.15
2023-02-19T08:53:16.632Z,27.05
2023-02-19T08:54:18.933Z,22.55
2023-02-19T08:55:21.492Z,15.27
2023-02-19T08:56:24.077Z,35.10
2023-02-19T08:57:27.873Z,29.00
2023-02-19T08:58:30.301Z,32.65
2023-02-19T08:59:32.651Z,32.38
2023-02-19T09:00:34.969Z,30.55
2023-02-19T09:01:37.379Z,29.42
2023-02-19T09:02:39.865Z,27.83
2023-02-19T09:03:42.500Z,27.48
2023-02-19T09:04:44.828Z,26.23
2023-02-19T09:05:47.440Z,25.50
2023-02-19T09:06:49.702Z,25.60
2023-02-19T09:07:52.027Z,25.83
2023-02-19T09:08:54.307Z,26.13
2023-02-19T09:09:56.576Z,25.75
2023-02-19T09:11:03.589Z,24.73
2023-02-19T09:12:07.399Z,24.33
2023-02-19T09:13:09.712Z,24.58
2023-02-19T09:14:12.060Z,14.60
2023-02-19T09:15:14.560Z,36.22
2023-02-19T09:16:16.889Z,79.43
2023-02-19T09:17:19.132Z,71.72
2023-02-19T09:18:21.482Z,84.32
2023-02-19T09:19:23.837Z,87.40
2023-02-19T09:20:26.131Z,82.88
2023-02-19T09:21:28.514Z,62.20
2023-02-19T09:22:30.856Z,49.35
2023-02-19T09:23:34.901Z,45.47
2023-02-19T09:24:37.420Z,41.22
2023-02-19T09:25:39.809Z,41.50
2023-02-19T09:26:42.177Z,40.05
2023-02-19T09:27:44.772Z,39.40
2023-02-19T09:28:47.101Z,36.70
2023-02-19T09:29:49.509Z,39.03
2023-02-19T09:30:51.916Z,37.00
2023-02-19T09:31:58.697Z,37.10
2023-02-19T09:33:01.083Z,36.80
2023-02-19T09:34:03.394Z,37.95
2023-02-19T09:35:06.162Z,35.78
2023-02-19T09:36:08.796Z,36.67
2023-02-19T09:37:11.095Z,35.30
2023-02-19T09:38:13.678Z,35.70
2023-02-19T09:39:16.147Z,28.60
2023-02-19T09:40:21.514Z,29.80
2023-02-19T09:41:32.179Z,27.52
2023-02-19T09:42:34.584Z,27.27
2023-02-19T09:43:37.560Z,27.38
2023-02-19T09:44:42.782Z,26.73
2023-02-19T09:45:45.373Z,27.65
2023-02-19T09:46:50.253Z,28.90
2023-02-19T09:47:57.830Z,29.60
2023-02-19T09:49:13.188Z,30.15
2023-02-19T09:50:21.323Z,29.33
2023-02-19T09:51:27.587Z,30.52
2023-02-19T09:52:39.172Z,28.70
2023-02-19T09:53:45.986Z,27.52
2023-02-19T09:54:48.602Z,29.35
2023-02-19T09:55:52.494Z,28.27
2023-02-19T09:56:56.880Z,27.80
2023-02-19T09:58:02.202Z,27.85
2023-02-19T09:59:05.946Z,27.38
2023-02-19T10:00:24.685Z,27.73
2023-02-19T10:01:32.340Z,28.52
2023-02-19T10:02:35.033Z,27.55
2023-02-19T10:03:44.510Z,27.40
2023-02-19T10:04:48.374Z,26.65
2023-02-19T10:05:51.262Z,27.52
2023-02-19T10:06:58.972Z,27.48
2023-02-19T10:08:06.396Z,25.55
2023-02-19T10:09:26.884Z,27.08
2023-02-19T10:10:37.121Z,25.58
2023-02-19T10:11:39.705Z,27.05
2023-02-19T10:12:50.868Z,25.80
2023-02-19T10:14:09.359Z,26.98
2023-02-19T10:15:27.020Z,26.05
2023-02-19T10:16:29.824Z,26.23
2023-02-19T10:17:34.651Z,25.10
2023-02-19T10:18:42.502Z,25.70
2023-02-19T10:19:45.058Z,25.42
2023-02-19T10:20:49.516Z,25.48
2023-02-19T10:21:51.997Z,26.23
2023-02-19T10:23:02.409Z,25.90
2023-02-19T10:24:06.927Z,25.30
2023-02-19T10:25:15.039Z,24.98
2023-02-19T10:26:17.592Z,25.88
2023-02-19T10:27:19.982Z,24.98
2023-02-19T10:28:25.806Z,23.77
2023-02-19T10:29:28.181Z,24.58
2023-02-19T10:30:34.668Z,23.67
2023-02-19T10:31:37.208Z,24.35
2023-02-19T10:33:08.415Z,24.58
2023-02-19T10:34:19.432Z,24.95
2023-02-19T10:35:21.811Z,23.73
2023-02-19T10:36:32.094Z,24.98
2023-02-19T10:37:35.680Z,24.63
2023-02-19T10:38:44.917Z,25.38
2023-02-19T10:39:49.612Z,27.65
2023-02-19T10:41:02.825Z,24.05
2023-02-19T10:42:05.484Z,25.70
2023-02-19T10:43:23.605Z,22.60
2023-02-19T10:44:29.032Z,24.40
2023-02-19T10:45:45.248Z,22.02
2023-02-19T10:46:50.747Z,22.77
2023-02-19T10:47:53.429Z,22.52
2023-02-19T10:49:05.455Z,23.10
2023-02-19T10:50:23.556Z,24.73
2023-02-19T10:51:40.834Z,22.08
2023-02-19T10:52:43.654Z,22.02
2023-02-19T10:53:49.172Z,22.70
2023-02-19T10:55:20.758Z,21.73
2023-02-19T10:56:25.613Z,21.85
2023-02-19T10:57:33.022Z,21.30
2023-02-19T10:58:37.660Z,21.77
2023-02-19T10:59:49.834Z,20.98
2023-02-19T11:01:21.252Z,20.75
2023-02-19T11:02:24.500Z,21.02
2023-02-19T11:03:26.863Z,20.42
2023-02-19T11:04:38.283Z,21.42
2023-02-19T11:05:55.485Z,21.23
2023-02-19T11:06:58.142Z,20.80
2023-02-19T11:08:01.085Z,21.13
2023-02-19T11:09:03.531Z,21.60
2023-02-19T11:10:07.176Z,21.65
2023-02-19T11:11:09.914Z,20.25
2023-02-19T11:12:25.173Z,22.00
2023-02-19T11:13:32.366Z,20.40
2023-02-19T11:14:34.922Z,19.75
2023-02-19T11:15:37.757Z,16.08
2023-02-19T11:16:43.757Z,18.75
2023-02-19T11:17:53.994Z,22.65
2023-02-19T11:18:57.302Z,19.95
2023-02-19T11:20:06.753Z,19.48
2023-02-19T11:21:25.619Z,20.05
2023-02-19T11:22:33.868Z,20.10
2023-02-19T11:23:45.900Z,19.92
2023-02-19T11:24:51.173Z,20.27
2023-02-19T11:25:57.284Z,20.25
2023-02-19T11:27:01.128Z,19.50
2023-02-19T11:28:20.544Z,21.50
2023-02-19T11:29:24.526Z,19.08
2023-02-19T11:30:47.251Z,18.73
2023-02-19T11:31:49.654Z,19.23
2023-02-19T11:32:51.992Z,19.08
2023-02-19T11:34:24.809Z,18.92
2023-02-19T11:35:27.144Z,17.83
2023-02-19T11:36:37.588Z,18.27
2023-02-19T11:37:58.078Z,18.70
2023-02-19T11:39:15.106Z,18.73
2023-02-19T11:40:17.572Z,17.73
2023-02-19T11:41:43.056Z,18.65
2023-02-19T11:43:02.160Z,18.70
2023-02-19T11:44:20.244Z,18.02
2023-02-19T11:45:52.056Z,17.13
2023-02-19T11:47:05.075Z,18.80
2023-02-19T11:48:22.485Z,19.10
2023-02-19T11:49:48.415Z,18.58
2023-02-19T11:51:02.638Z,17.50
2023-02-19T11:52:28.981Z,18.15
2023-02-19T11:53:33.748Z,17.42
2023-02-19T11:54:54.472Z,17.42
2023-02-19T11:56:19.209Z,17.30
2023-02-19T11:57:33.122Z,17.50
2023-02-19T11:58:44.672Z,18.48
2023-02-19T12:00:20.632Z,16.88
2023-02-19T12:01:29.401Z,17.25
2023-02-19T12:03:15.515Z,17.67
2023-02-19T12:04:55.243Z,16.95
2023-02-19T12:06:06.475Z,16.75
2023-02-19T12:07:42.625Z,17.65
2023-02-19T12:09:18.532Z,17.38
2023-02-19T12:10:22.985Z,17.40
2023-02-19T12:11:55.055Z,16.88
2023-02-19T12:13:03.608Z,16.73
2023-02-19T12:14:44.827Z,17.67
2023-02-19T12:16:15.547Z,18.02
2023-02-19T12:18:04.082Z,16.42
2023-02-19T12:19:14.936Z,15.90
2023-02-19T12:20:22.876Z,16.45
2023-02-19T12:21:51.458Z,15.13
2023-02-19T12:23:30.740Z,13.82
2023-02-19T12:24:59.745Z,17.92
2023-02-19T12:26:31.433Z,16.45
2023-02-19T12:27:58.316Z,18.13
2023-02-19T12:29:07.981Z,16.25
2023-02-19T12:30:25.196Z,17.20
2023-02-19T12:31:43.774Z,16.05
2023-02-19T12:33:04.481Z,16.10
2023-02-19T12:34:25.101Z,16.30
2023-02-19T12:35:36.070Z,16.52
2023-02-19T12:36:44.188Z,15.95
2023-02-19T12:38:24.454Z,16.48
2023-02-19T12:39:29.527Z,16.67
2023-02-19T12:40:57.958Z,16.17
2023-02-19T12:42:20.941Z,14.93
2023-02-19T12:43:24.264Z,16.17
2023-02-19T12:44:45.286Z,16.05
2023-02-19T12:46:00.235Z,15.13
2023-02-19T12:47:06.605Z,14.45
2023-02-19T12:48:42.573Z,15.07
2023-02-19T12:49:53.808Z,14.52
2023-02-19T12:51:10.761Z,14.68
2023-02-19T12:52:31.034Z,14.30
2023-02-19T12:53:45.889Z,14.52
2023-02-19T12:54:54.153Z,13.77
2023-02-19T12:56:01.158Z,14.38
2023-02-19T12:57:12.241Z,13.95
2023-02-19T12:58:28.872Z,15.27
2023-02-19T13:00:07.494Z,13.80
2023-02-19T13:01:15.738Z,13.93
2023-02-19T13:02:27.772Z,13.55
2023-02-19T13:03:36.619Z,14.30
2023-02-19T13:05:11.155Z,13.32
2023-02-19T13:06:24.308Z,13.75
2023-02-19T13:07:38.516Z,14.57
2023-02-19T13:09:06.848Z,13.63
2023-02-19T13:10:30.088Z,13.95
2023-02-19T13:11:38.110Z,13.68
2023-02-19T13:12:44.091Z,13.45
2023-02-19T13:13:58.744Z,13.23
2023-02-19T13:15:05.285Z,14.10
2023-02-19T13:16:19.668Z,13.52
2023-02-19T13:17:31.629Z,13.52
2023-02-19T13:18:46.259Z,13.65
2023-02-19T13:19:51.927Z,13.35
2023-02-19T13:20:55.793Z,13.73
2023-02-19T13:22:39.540Z,13.35
2023-02-19T13:23:58.703Z,13.25
2023-02-19T13:25:02.073Z,14.18
2023-02-19T13:26:42.894Z,14.25
2023-02-19T13:27:54.276Z,13.40
2023-02-19T13:30:25.194Z,12.40
2023-02-19T13:31:46.244Z,12.40
2023-02-19T13:33:21.292Z,12.18
2023-02-19T13:34:52.364Z,12.85
2023-02-19T13:36:06.289Z,12.73
2023-02-19T13:37:10.459Z,12.82
2023-02-19T13:38:13.759Z,12.50
2023-02-19T13:39:19.493Z,12.32
2023-02-19T13:40:42.888Z,13.27
2023-02-19T13:41:57.135Z,11.98
2023-02-19T13:43:02.320Z,12.43
2023-02-19T13:44:08.254Z,12.60
2023-02-19T13:45:44.172Z,12.88
2023-02-19T13:46:48.274Z,12.90
2023-02-19T13:47:59.155Z,13.20
2023-02-19T13:49:29.399Z,13.25
2023-02-19T13:50:33.892Z,13.18
2023-02-19T13:51:40.042Z,13.52
2023-02-19T13:52:42.926Z,12.23
2023-02-19T13:53:45.524Z,16.05
2023-02-19T13:54:47.963Z,29.90
2023-02-19T13:55:52.493Z,29.98
2023-02-19T13:57:25.045Z,24.17
2023-02-19T13:58:33.378Z,21.35
2023-02-19T13:59:37.956Z,21.67
2023-02-19T14:00:51.261Z,21.60
2023-02-19T14:01:56.383Z,18.80
2023-02-19T14:03:30.248Z,20.63
2023-02-19T14:04:32.478Z,17.77
2023-02-19T14:06:06.381Z,16.63
2023-02-19T14:07:08.707Z,17.92
2023-02-19T14:08:11.054Z,16.83
2023-02-19T14:09:41.128Z,15.80
2023-02-19T14:10:46.190Z,16.73
2023-02-19T14:11:49.132Z,15.82
2023-02-19T14:12:51.460Z,15.00
2023-02-19T14:13:54.458Z,14.98
2023-02-19T14:14:57.603Z,15.60
2023-02-19T14:16:00.210Z,14.68
2023-02-19T14:17:09.417Z,15.13
2023-02-19T14:18:40.672Z,16.38
2023-02-19T14:19:43.035Z,14.52
2023-02-19T14:20:46.045Z,15.02
2023-02-19T14:21:48.319Z,15.45
2023-02-19T14:23:01.410Z,14.88
2023-02-19T14:24:04.965Z,15.30
2023-02-19T14:25:31.934Z,15.20
2023-02-19T14:26:34.886Z,14.80
2023-02-19T14:27:38.148Z,14.73
2023-02-19T14:28:45.598Z,14.35
2023-02-19T14:29:48.558Z,14.15
2023-02-19T14:31:29.065Z,14.93
2023-02-19T14:32:31.608Z,13.05
2023-02-19T14:33:37.587Z,13.50
2023-02-19T14:34:39.989Z,14.60
2023-02-19T14:35:45.517Z,14.02
2023-02-19T14:36:51.685Z,13.90
2023-02-19T14:37:56.096Z,13.48
2023-02-19T14:39:06.099Z,13.57
2023-02-19T14:40:18.226Z,13.38
2023-02-19T14:41:23.298Z,13.13
2023-02-19T14:42:33.373Z,13.82
2023-02-19T14:43:37.163Z,14.35
2023-02-19T14:44:53.123Z,13.23
2023-02-19T14:45:59.985Z,14.35
2023-02-19T14:47:14.256Z,12.38
2023-02-19T14:48:32.266Z,13.57
2023-02-19T14:49:48.479Z,13.45
2023-02-19T14:50:57.570Z,13.35
2023-02-19T14:52:05.417Z,14.05
2023-02-19T14:53:08.696Z,12.60
2023-02-19T14:54:22.015Z,13.15